sensor_id;sensor_type;location;lat;lon;timestamp;P1;durP1;ratioP1;P2;durP2;ratioP2
15667;SDS011;7934;48.710;9.024;2023-04-03T00:00:30;3.63;;;3.30;;
15667;SDS011;7934;48.710;9.024;2023-04-03T00:02:57;4.30;;;3.42;;
15667;SDS011;7934;48.710;9.024;2023-04-03T00:05:25;3.50;;;3.30;;
15667;SDS011;7934;48.710;9.024;2023-04-03T00:07:53;5.70;;;3.50;;
15667;SDS011;7934;48.710;9.024;2023-04-03T00:10:20;3.80;;;3.40;;
15667;SDS011;7934;48.710;9.024;2023-04-03T00:12:47;3.42;;;3.22;;
15667;SDS011;7934;48.710;9.024;2023-04-03T00:15:15;3.70;;;3.40;;
15667;SDS011;7934;48.710;9.024;2023-04-03T00:17:42;3.75;;;3.28;;
15667;SDS011;7934;48.710;9.024;2023-04-03T00:20:09;3.60;;;3.30;;
15667;SDS011;7934;48.710;9.024;2023-04-03T00:22:36;3.75;;;3.30;;
15667;SDS011;7934;48.710;9.024;2023-04-03T00:25:05;3.60;;;3.30;;
15667;SDS011;7934;48.710;9.024;2023-04-03T00:27:33;3.83;;;3.38;;
15667;SDS011;7934;48.710;9.024;2023-04-03T00:30:00;3.60;;;3.30;;
15667;SDS011;7934;48.710;9.024;2023-04-03T00:32:27;3.40;;;3.20;;
15667;SDS011;7934;48.710;9.024;2023-04-03T00:34:54;3.55;;;3.33;;
15667;SDS011;7934;48.710;9.024;2023-04-03T00:37:21;3.58;;;3.28;;
15667;SDS011;7934;48.710;9.024;2023-04-03T00:39:48;3.53;;;3.20;;
15667;SDS011;7934;48.710;9.024;2023-04-03T00:42:17;3.80;;;3.53;;
15667;SDS011;7934;48.710;9.024;2023-04-03T00:47:30;3.75;;;3.42;;
15667;SDS011;7934;48.710;9.024;2023-04-03T00:49:57;3.47;;;3.28;;
15667;SDS011;7934;48.710;9.024;2023-04-03T00:52:26;4.05;;;3.35;;
15667;SDS011;7934;48.710;9.024;2023-04-03T00:54:57;4.10;;;3.35;;
15667;SDS011;7934;48.710;9.024;2023-04-03T00:57:26;3.70;;;3.33;;
15667;SDS011;7934;48.710;9.024;2023-04-03T00:59:55;3.35;;;3.05;;
15667;SDS011;7934;48.710;9.024;2023-04-03T01:02:24;3.47;;;3.28;;
15667;SDS011;7934;48.710;9.024;2023-04-03T01:04:51;3.85;;;3.53;;
15667;SDS011;7934;48.710;9.024;2023-04-03T01:07:19;4.80;;;3.65;;
15667;SDS011;7934;48.710;9.024;2023-04-03T01:09:48;4.10;;;3.60;;
15667;SDS011;7934;48.710;9.024;2023-04-03T01:12:17;3.90;;;3.50;;
15667;SDS011;7934;48.710;9.024;2023-04-03T01:14:46;3.70;;;3.40;;
15667;SDS011;7934;48.710;9.024;2023-04-03T01:17:25;3.67;;;3.38;;
15667;SDS011;7934;48.710;9.024;2023-04-03T01:19:58;4.47;;;3.60;;
15667;SDS011;7934;48.710;9.024;2023-04-03T01:22:29;3.83;;;3.53;;
15667;SDS011;7934;48.710;9.024;2023-04-03T01:24:59;3.45;;;3.25;;
15667;SDS011;7934;48.710;9.024;2023-04-03T01:27:26;3.40;;;3.20;;
15667;SDS011;7934;48.710;9.024;2023-04-03T01:29:54;3.65;;;3.33;;
15667;SDS011;7934;48.710;9.024;2023-04-03T01:32:23;3.75;;;3.45;;
15667;SDS011;7934;48.710;9.024;2023-04-03T01:34:50;3.70;;;3.40;;
15667;SDS011;7934;48.710;9.024;2023-04-03T01:37:17;3.60;;;3.30;;
15667;SDS011;7934;48.710;9.024;2023-04-03T01:39:45;3.97;;;3.60;;
15667;SDS011;7934;48.710;9.024;2023-04-03T01:42:12;4.05;;;3.75;;
15667;SDS011;7934;48.710;9.024;2023-04-03T01:44:40;4.63;;;3.53;;
15667;SDS011;7934;48.710;9.024;2023-04-03T01:47:08;3.97;;;3.67;;
15667;SDS011;7934;48.710;9.024;2023-04-03T01:49:36;4.07;;;3.65;;
15667;SDS011;7934;48.710;9.024;2023-04-03T01:52:03;3.95;;;3.67;;
15667;SDS011;7934;48.710;9.024;2023-04-03T01:54:30;3.97;;;3.65;;
15667;SDS011;7934;48.710;9.024;2023-04-03T01:56:58;4.07;;;3.70;;
15667;SDS011;7934;48.710;9.024;2023-04-03T01:59:25;4.15;;;3.75;;
15667;SDS011;7934;48.710;9.024;2023-04-03T02:01:53;3.70;;;3.40;;
15667;SDS011;7934;48.710;9.024;2023-04-03T02:04:20;3.90;;;3.63;;
15667;SDS011;7934;48.710;9.024;2023-04-03T02:06:48;3.67;;;3.38;;
15667;SDS011;7934;48.710;9.024;2023-04-03T02:09:16;3.80;;;3.45;;
15667;SDS011;7934;48.710;9.024;2023-04-03T02:11:43;3.85;;;3.45;;
15667;SDS011;7934;48.710;9.024;2023-04-03T02:14:10;3.85;;;3.55;;
15667;SDS011;7934;48.710;9.024;2023-04-03T02:16:37;4.10;;;3.70;;
15667;SDS011;7934;48.710;9.024;2023-04-03T02:19:04;3.70;;;3.43;;
15667;SDS011;7934;48.710;9.024;2023-04-03T02:21:31;4.07;;;3.67;;
15667;SDS011;7934;48.710;9.024;2023-04-03T02:24:00;3.75;;;3.45;;
15667;SDS011;7934;48.710;9.024;2023-04-03T02:26:27;4.05;;;3.70;;
15667;SDS011;7934;48.710;9.024;2023-04-03T02:28:54;3.78;;;3.40;;
15667;SDS011;7934;48.710;9.024;2023-04-03T02:31:21;3.97;;;3.15;;
15667;SDS011;7934;48.710;9.024;2023-04-03T02:33:49;3.53;;;3.22;;
15667;SDS011;7934;48.710;9.024;2023-04-03T02:36:16;3.70;;;3.50;;
15667;SDS011;7934;48.710;9.024;2023-04-03T02:38:43;4.05;;;3.75;;
15667;SDS011;7934;48.710;9.024;2023-04-03T02:41:12;3.67;;;3.47;;
15667;SDS011;7934;48.710;9.024;2023-04-03T02:43:39;3.60;;;3.30;;
15667;SDS011;7934;48.710;9.024;2023-04-03T02:46:07;4.60;;;3.60;;
15667;SDS011;7934;48.710;9.024;2023-04-03T02:48:34;3.50;;;3.30;;
15667;SDS011;7934;48.710;9.024;2023-04-03T02:51:01;3.60;;;3.30;;
15667;SDS011;7934;48.710;9.024;2023-04-03T02:53:28;4.30;;;3.70;;
15667;SDS011;7934;48.710;9.024;2023-04-03T02:55:55;3.72;;;3.42;;
15667;SDS011;7934;48.710;9.024;2023-04-03T02:58:24;3.75;;;3.47;;
15667;SDS011;7934;48.710;9.024;2023-04-03T03:00:51;3.70;;;3.40;;
15667;SDS011;7934;48.710;9.024;2023-04-03T03:03:18;3.90;;;3.60;;
15667;SDS011;7934;48.710;9.024;2023-04-03T03:05:45;3.65;;;3.35;;
15667;SDS011;7934;48.710;9.024;2023-04-03T03:08:13;6.38;;;3.47;;
15667;SDS011;7934;48.710;9.024;2023-04-03T03:10:40;3.97;;;3.53;;
15667;SDS011;7934;48.710;9.024;2023-04-03T03:13:07;4.13;;;3.72;;
15667;SDS011;7934;48.710;9.024;2023-04-03T03:15:36;4.70;;;3.40;;
15667;SDS011;7934;48.710;9.024;2023-04-03T03:18:03;3.50;;;3.22;;
15667;SDS011;7934;48.710;9.024;2023-04-03T03:20:30;4.80;;;3.67;;
15667;SDS011;7934;48.710;9.024;2023-04-03T03:23:00;3.42;;;3.22;;
15667;SDS011;7934;48.710;9.024;2023-04-03T03:25:28;4.40;;;3.40;;
15667;SDS011;7934;48.710;9.024;2023-04-03T03:27:55;3.60;;;3.30;;
15667;SDS011;7934;48.710;9.024;2023-04-03T03:30:22;3.47;;;3.17;;
15667;SDS011;7934;48.710;9.024;2023-04-03T03:32:51;3.83;;;3.63;;
15667;SDS011;7934;48.710;9.024;2023-04-03T03:35:18;4.15;;;3.33;;
15667;SDS011;7934;48.710;9.024;2023-04-03T03:37:45;3.65;;;3.42;;
15667;SDS011;7934;48.710;9.024;2023-04-03T03:40:12;5.32;;;3.47;;
15667;SDS011;7934;48.710;9.024;2023-04-03T03:42:39;4.07;;;3.47;;
15667;SDS011;7934;48.710;9.024;2023-04-03T03:45:07;4.63;;;3.40;;
15667;SDS011;7934;48.710;9.024;2023-04-03T03:47:44;3.77;;;3.23;;
15667;SDS011;7934;48.710;9.024;2023-04-03T03:50:15;3.35;;;3.10;;
15667;SDS011;7934;48.710;9.024;2023-04-03T03:52:42;3.30;;;3.10;;
15667;SDS011;7934;48.710;9.024;2023-04-03T03:55:10;3.63;;;3.17;;
15667;SDS011;7934;48.710;9.024;2023-04-03T03:57:38;3.75;;;3.42;;
15667;SDS011;7934;48.710;9.024;2023-04-03T04:00:05;3.40;;;3.10;;
15667;SDS011;7934;48.710;9.024;2023-04-03T04:02:33;3.20;;;3.00;;
15667;SDS011;7934;48.710;9.024;2023-04-03T04:05:01;3.60;;;3.05;;
15667;SDS011;7934;48.710;9.024;2023-04-03T04:07:29;3.38;;;3.00;;
15667;SDS011;7934;48.710;9.024;2023-04-03T04:09:56;3.45;;;3.15;;
15667;SDS011;7934;48.710;9.024;2023-04-03T04:12:24;3.75;;;3.13;;
15667;SDS011;7934;48.710;9.024;2023-04-03T04:14:51;3.30;;;3.10;;
15667;SDS011;7934;48.710;9.024;2023-04-03T04:17:18;3.45;;;3.15;;
15667;SDS011;7934;48.710;9.024;2023-04-03T04:19:45;3.50;;;3.20;;
15667;SDS011;7934;48.710;9.024;2023-04-03T04:22:13;3.63;;;3.20;;
15667;SDS011;7934;48.710;9.024;2023-04-03T04:24:41;3.42;;;3.13;;
15667;SDS011;7934;48.710;9.024;2023-04-03T04:27:08;3.70;;;3.40;;
15667;SDS011;7934;48.710;9.024;2023-04-03T04:29:35;3.30;;;3.00;;
15667;SDS011;7934;48.710;9.024;2023-04-03T04:32:03;3.40;;;3.10;;
15667;SDS011;7934;48.710;9.024;2023-04-03T04:34:30;4.70;;;3.07;;
15667;SDS011;7934;48.710;9.024;2023-04-03T04:36:57;4.10;;;3.20;;
15667;SDS011;7934;48.710;9.024;2023-04-03T04:39:25;3.45;;;3.15;;
15667;SDS011;7934;48.710;9.024;2023-04-03T04:41:53;3.72;;;3.45;;
15667;SDS011;7934;48.710;9.024;2023-04-03T04:44:20;3.40;;;3.10;;
15667;SDS011;7934;48.710;9.024;2023-04-03T04:46:47;3.25;;;2.95;;
15667;SDS011;7934;48.710;9.024;2023-04-03T04:49:14;3.45;;;3.20;;
15667;SDS011;7934;48.710;9.024;2023-04-03T04:51:42;3.40;;;3.10;;
15667;SDS011;7934;48.710;9.024;2023-04-03T04:54:09;3.42;;;3.15;;
15667;SDS011;7934;48.710;9.024;2023-04-03T04:56:36;3.22;;;2.95;;
15667;SDS011;7934;48.710;9.024;2023-04-03T04:59:04;4.18;;;3.28;;
15667;SDS011;7934;48.710;9.024;2023-04-03T05:01:31;3.10;;;2.80;;
15667;SDS011;7934;48.710;9.024;2023-04-03T05:03:59;3.90;;;3.08;;
15667;SDS011;7934;48.710;9.024;2023-04-03T05:06:26;3.15;;;2.95;;
15667;SDS011;7934;48.710;9.024;2023-04-03T05:08:55;3.42;;;2.95;;
15667;SDS011;7934;48.710;9.024;2023-04-03T05:11:22;3.17;;;2.88;;
15667;SDS011;7934;48.710;9.024;2023-04-03T05:13:49;3.22;;;2.92;;
15667;SDS011;7934;48.710;9.024;2023-04-03T05:16:18;3.17;;;2.50;;
15667;SDS011;7934;48.710;9.024;2023-04-03T05:18:45;2.90;;;2.30;;
15667;SDS011;7934;48.710;9.024;2023-04-03T05:21:12;2.38;;;2.22;;
15667;SDS011;7934;48.710;9.024;2023-04-03T05:23:39;2.72;;;2.53;;
15667;SDS011;7934;48.710;9.024;2023-04-03T05:26:06;2.40;;;2.30;;
15667;SDS011;7934;48.710;9.024;2023-04-03T05:28:34;2.28;;;2.15;;
15667;SDS011;7934;48.710;9.024;2023-04-03T05:31:01;2.17;;;2.07;;
15667;SDS011;7934;48.710;9.024;2023-04-03T05:33:30;2.50;;;2.30;;
15667;SDS011;7934;48.710;9.024;2023-04-03T05:36:01;1.95;;;1.80;;
15667;SDS011;7934;48.710;9.024;2023-04-03T05:38:29;3.10;;;2.10;;
15667;SDS011;7934;48.710;9.024;2023-04-03T05:40:56;2.30;;;2.20;;
15667;SDS011;7934;48.710;9.024;2023-04-03T05:43:24;2.20;;;2.10;;
15667;SDS011;7934;48.710;9.024;2023-04-03T05:45:51;2.10;;;1.90;;
15667;SDS011;7934;48.710;9.024;2023-04-03T05:48:18;3.35;;;1.90;;
15667;SDS011;7934;48.710;9.024;2023-04-03T05:50:47;2.03;;;1.90;;
15667;SDS011;7934;48.710;9.024;2023-04-03T05:53:15;2.30;;;2.10;;
15667;SDS011;7934;48.710;9.024;2023-04-03T05:55:43;2.35;;;2.25;;
15667;SDS011;7934;48.710;9.024;2023-04-03T05:58:10;3.65;;;2.50;;
15667;SDS011;7934;48.710;9.024;2023-04-03T06:00:38;2.90;;;2.70;;
15667;SDS011;7934;48.710;9.024;2023-04-03T06:03:07;2.53;;;2.33;;
15667;SDS011;7934;48.710;9.024;2023-04-03T06:05:35;2.58;;;2.38;;
15667;SDS011;7934;48.710;9.024;2023-04-03T06:08:03;3.03;;;2.38;;
15667;SDS011;7934;48.710;9.024;2023-04-03T06:10:30;2.50;;;2.30;;
15667;SDS011;7934;48.710;9.024;2023-04-03T06:12:58;3.00;;;2.37;;
15667;SDS011;7934;48.710;9.024;2023-04-03T06:15:25;2.72;;;2.63;;
15667;SDS011;7934;48.710;9.024;2023-04-03T06:17:55;2.95;;;2.75;;
15667;SDS011;7934;48.710;9.024;2023-04-03T06:20:36;4.15;;;2.90;;
15667;SDS011;7934;48.710;9.024;2023-04-03T06:23:24;3.67;;;2.58;;
15667;SDS011;7934;48.710;9.024;2023-04-03T06:25:51;3.20;;;3.00;;
15667;SDS011;7934;48.710;9.024;2023-04-03T06:28:19;2.60;;;2.40;;
15667;SDS011;7934;48.710;9.024;2023-04-03T06:30:46;3.25;;;2.50;;
15667;SDS011;7934;48.710;9.024;2023-04-03T06:33:16;3.10;;;2.58;;
15667;SDS011;7934;48.710;9.024;2023-04-03T06:35:43;2.55;;;2.45;;
15667;SDS011;7934;48.710;9.024;2023-04-03T06:38:11;2.60;;;2.40;;
15667;SDS011;7934;48.710;9.024;2023-04-03T06:40:39;3.55;;;2.50;;
15667;SDS011;7934;48.710;9.024;2023-04-03T06:43:06;2.58;;;2.38;;
15667;SDS011;7934;48.710;9.024;2023-04-03T06:45:34;4.15;;;2.40;;
15667;SDS011;7934;48.710;9.024;2023-04-03T06:48:01;2.70;;;2.50;;
15667;SDS011;7934;48.710;9.024;2023-04-03T06:50:28;2.75;;;2.30;;
15667;SDS011;7934;48.710;9.024;2023-04-03T06:52:55;2.47;;;2.28;;
15667;SDS011;7934;48.710;9.024;2023-04-03T06:55:22;2.78;;;2.40;;
15667;SDS011;7934;48.710;9.024;2023-04-03T06:57:52;2.30;;;2.03;;
15667;SDS011;7934;48.710;9.024;2023-04-03T07:00:22;2.75;;;2.20;;
15667;SDS011;7934;48.710;9.024;2023-04-03T07:02:49;2.42;;;2.22;;
15667;SDS011;7934;48.710;9.024;2023-04-03T07:05:17;3.33;;;2.50;;
15667;SDS011;7934;48.710;9.024;2023-04-03T07:07:45;2.70;;;2.50;;
15667;SDS011;7934;48.710;9.024;2023-04-03T07:10:12;2.95;;;2.40;;
15667;SDS011;7934;48.710;9.024;2023-04-03T07:12:39;2.38;;;2.28;;
15667;SDS011;7934;48.710;9.024;2023-04-03T07:15:08;2.70;;;2.50;;
15667;SDS011;7934;48.710;9.024;2023-04-03T07:17:37;2.70;;;2.50;;
15667;SDS011;7934;48.710;9.024;2023-04-03T07:20:04;4.50;;;2.65;;
15667;SDS011;7934;48.710;9.024;2023-04-03T07:22:32;2.50;;;2.40;;
15667;SDS011;7934;48.710;9.024;2023-04-03T07:24:59;2.65;;;2.50;;
15667;SDS011;7934;48.710;9.024;2023-04-03T07:27:28;2.80;;;2.63;;
15667;SDS011;7934;48.710;9.024;2023-04-03T07:29:55;2.92;;;2.58;;
15667;SDS011;7934;48.710;9.024;2023-04-03T07:32:24;2.60;;;2.40;;
15667;SDS011;7934;48.710;9.024;2023-04-03T07:34:51;2.40;;;2.23;;
15667;SDS011;7934;48.710;9.024;2023-04-03T07:37:18;2.50;;;2.30;;
15667;SDS011;7934;48.710;9.024;2023-04-03T07:39:45;2.53;;;2.33;;
15667;SDS011;7934;48.710;9.024;2023-04-03T07:42:13;2.40;;;2.08;;
15667;SDS011;7934;48.710;9.024;2023-04-03T07:44:41;3.88;;;2.40;;
15667;SDS011;7934;48.710;9.024;2023-04-03T07:47:08;4.03;;;2.47;;
15667;SDS011;7934;48.710;9.024;2023-04-03T07:49:37;2.77;;;2.57;;
15667;SDS011;7934;48.710;9.024;2023-04-03T07:52:05;2.55;;;2.35;;
15667;SDS011;7934;48.710;9.024;2023-04-03T07:54:34;3.45;;;2.25;;
15667;SDS011;7934;48.710;9.024;2023-04-03T07:57:01;4.25;;;2.50;;
15667;SDS011;7934;48.710;9.024;2023-04-03T07:59:28;2.75;;;2.55;;
15667;SDS011;7934;48.710;9.024;2023-04-03T08:01:55;2.67;;;2.40;;
15667;SDS011;7934;48.710;9.024;2023-04-03T08:04:22;3.78;;;2.58;;
15667;SDS011;7934;48.710;9.024;2023-04-03T08:06:51;3.50;;;2.65;;
15667;SDS011;7934;48.710;9.024;2023-04-03T08:09:18;3.92;;;2.70;;
15667;SDS011;7934;48.710;9.024;2023-04-03T08:11:47;3.67;;;2.60;;
15667;SDS011;7934;48.710;9.024;2023-04-03T08:14:18;3.10;;;2.50;;
15667;SDS011;7934;48.710;9.024;2023-04-03T08:16:45;4.68;;;2.63;;
15667;SDS011;7934;48.710;9.024;2023-04-03T08:19:12;3.65;;;2.63;;
15667;SDS011;7934;48.710;9.024;2023-04-03T08:21:40;2.58;;;2.35;;
15667;SDS011;7934;48.710;9.024;2023-04-03T08:24:09;2.53;;;2.33;;
15667;SDS011;7934;48.710;9.024;2023-04-03T08:26:37;4.00;;;2.83;;
15667;SDS011;7934;48.710;9.024;2023-04-03T08:29:04;2.92;;;2.45;;
15667;SDS011;7934;48.710;9.024;2023-04-03T08:31:31;3.75;;;2.63;;
15667;SDS011;7934;48.710;9.024;2023-04-03T08:33:59;3.53;;;2.70;;
15667;SDS011;7934;48.710;9.024;2023-04-03T08:36:28;2.65;;;2.30;;
15667;SDS011;7934;48.710;9.024;2023-04-03T08:38:56;3.10;;;2.50;;
15667;SDS011;7934;48.710;9.024;2023-04-03T08:41:27;3.50;;;2.57;;
15667;SDS011;7934;48.710;9.024;2023-04-03T08:43:58;3.28;;;2.60;;
15667;SDS011;7934;48.710;9.024;2023-04-03T08:46:30;3.67;;;2.53;;
15667;SDS011;7934;48.710;9.024;2023-04-03T08:49:01;3.33;;;2.50;;
15667;SDS011;7934;48.710;9.024;2023-04-03T08:51:28;4.78;;;2.58;;
15667;SDS011;7934;48.710;9.024;2023-04-03T08:53:56;2.58;;;2.38;;
15667;SDS011;7934;48.710;9.024;2023-04-03T08:56:28;2.60;;;2.40;;
15667;SDS011;7934;48.710;9.024;2023-04-03T08:58:58;4.85;;;2.58;;
15667;SDS011;7934;48.710;9.024;2023-04-03T09:01:27;2.60;;;2.40;;
15667;SDS011;7934;48.710;9.024;2023-04-03T09:03:56;3.90;;;2.58;;
15667;SDS011;7934;48.710;9.024;2023-04-03T09:06:23;3.17;;;2.75;;
15667;SDS011;7934;48.710;9.024;2023-04-03T09:09:04;4.05;;;2.67;;
15667;SDS011;7934;48.710;9.024;2023-04-03T09:11:40;2.33;;;2.20;;
15667;SDS011;7934;48.710;9.024;2023-04-03T09:14:11;3.08;;;2.78;;
15667;SDS011;7934;48.710;9.024;2023-04-03T09:16:43;4.32;;;2.70;;
15667;SDS011;7934;48.710;9.024;2023-04-03T09:19:15;3.03;;;2.50;;
15667;SDS011;7934;48.710;9.024;2023-04-03T09:21:44;4.20;;;2.70;;
15667;SDS011;7934;48.710;9.024;2023-04-03T09:24:12;3.05;;;2.60;;
15667;SDS011;7934;48.710;9.024;2023-04-03T09:26:42;3.28;;;2.67;;
15667;SDS011;7934;48.710;9.024;2023-04-03T09:29:12;3.67;;;2.58;;
15667;SDS011;7934;48.710;9.024;2023-04-03T09:31:42;2.70;;;2.50;;
15667;SDS011;7934;48.710;9.024;2023-04-03T09:34:15;2.83;;;2.53;;
15667;SDS011;7934;48.710;9.024;2023-04-03T09:36:46;3.78;;;2.40;;
15667;SDS011;7934;48.710;9.024;2023-04-03T09:39:14;3.38;;;2.53;;
15667;SDS011;7934;48.710;9.024;2023-04-03T09:41:59;2.90;;;2.50;;
15667;SDS011;7934;48.710;9.024;2023-04-03T09:44:27;2.95;;;2.60;;
15667;SDS011;7934;48.710;9.024;2023-04-03T09:46:56;2.47;;;2.13;;
15667;SDS011;7934;48.710;9.024;2023-04-03T09:49:23;2.55;;;2.35;;
15667;SDS011;7934;48.710;9.024;2023-04-03T09:51:50;2.83;;;2.47;;
15667;SDS011;7934;48.710;9.024;2023-04-03T09:54:29;2.45;;;2.20;;
15667;SDS011;7934;48.710;9.024;2023-04-03T09:56:59;3.20;;;2.35;;
15667;SDS011;7934;48.710;9.024;2023-04-03T09:59:27;2.42;;;2.22;;
15667;SDS011;7934;48.710;9.024;2023-04-03T10:01:58;2.35;;;2.08;;
15667;SDS011;7934;48.710;9.024;2023-04-03T10:04:26;2.15;;;2.00;;
15667;SDS011;7934;48.710;9.024;2023-04-03T10:07:03;3.28;;;2.30;;
15667;SDS011;7934;48.710;9.024;2023-04-03T10:09:31;4.05;;;2.22;;
15667;SDS011;7934;48.710;9.024;2023-04-03T10:12:01;3.10;;;2.50;;
15667;SDS011;7934;48.710;9.024;2023-04-03T10:14:30;2.83;;;2.28;;
15667;SDS011;7934;48.710;9.024;2023-04-03T10:16:59;3.15;;;2.40;;
15667;SDS011;7934;48.710;9.024;2023-04-03T10:19:36;6.82;;;2.72;;
15667;SDS011;7934;48.710;9.024;2023-04-03T10:22:10;2.35;;;2.15;;
15667;SDS011;7934;48.710;9.024;2023-04-03T10:24:43;2.60;;;2.30;;
15667;SDS011;7934;48.710;9.024;2023-04-03T10:27:15;3.15;;;2.10;;
15667;SDS011;7934;48.710;9.024;2023-04-03T10:29:45;5.05;;;2.40;;
15667;SDS011;7934;48.710;9.024;2023-04-03T10:32:36;3.85;;;2.08;;
15667;SDS011;7934;48.710;9.024;2023-04-03T10:35:11;3.45;;;2.20;;
15667;SDS011;7934;48.710;9.024;2023-04-03T10:37:45;2.20;;;2.00;;
15667;SDS011;7934;48.710;9.024;2023-04-03T10:40:20;3.53;;;2.40;;
15667;SDS011;7934;48.710;9.024;2023-04-03T10:42:53;3.17;;;2.28;;
15667;SDS011;7934;48.710;9.024;2023-04-03T10:45:24;2.40;;;2.20;;
15667;SDS011;7934;48.710;9.024;2023-04-03T10:47:56;3.78;;;2.20;;
15667;SDS011;7934;48.710;9.024;2023-04-03T10:50:34;2.72;;;2.25;;
15667;SDS011;7934;48.710;9.024;2023-04-03T10:53:06;2.30;;;2.10;;
15667;SDS011;7934;48.710;9.024;2023-04-03T10:55:36;3.38;;;2.20;;
15667;SDS011;7934;48.710;9.024;2023-04-03T10:58:06;2.25;;;2.05;;
15667;SDS011;7934;48.710;9.024;2023-04-03T11:00:38;2.35;;;2.10;;
15667;SDS011;7934;48.710;9.024;2023-04-03T11:03:09;2.47;;;1.98;;
15667;SDS011;7934;48.710;9.024;2023-04-03T11:05:39;2.88;;;2.05;;
15667;SDS011;7934;48.710;9.024;2023-04-03T11:08:11;2.10;;;2.00;;
15667;SDS011;7934;48.710;9.024;2023-04-03T11:10:41;2.65;;;1.95;;
15667;SDS011;7934;48.710;9.024;2023-04-03T11:13:10;3.35;;;2.30;;
15667;SDS011;7934;48.710;9.024;2023-04-03T11:15:39;2.85;;;1.95;;
15667;SDS011;7934;48.710;9.024;2023-04-03T11:18:06;4.05;;;2.08;;
15667;SDS011;7934;48.710;9.024;2023-04-03T11:20:36;2.10;;;1.90;;
15667;SDS011;7934;48.710;9.024;2023-04-03T11:23:06;2.95;;;2.28;;
15667;SDS011;7934;48.710;9.024;2023-04-03T11:25:33;3.08;;;2.28;;
15667;SDS011;7934;48.710;9.024;2023-04-03T11:28:03;3.90;;;2.30;;
15667;SDS011;7934;48.710;9.024;2023-04-03T11:30:33;2.42;;;2.20;;
15667;SDS011;7934;48.710;9.024;2023-04-03T11:33:11;3.03;;;1.80;;
15667;SDS011;7934;48.710;9.024;2023-04-03T11:35:42;3.08;;;2.30;;
15667;SDS011;7934;48.710;9.024;2023-04-03T11:38:13;2.25;;;2.10;;
15667;SDS011;7934;48.710;9.024;2023-04-03T11:40:45;2.60;;;2.22;;
15667;SDS011;7934;48.710;9.024;2023-04-03T11:43:20;3.38;;;2.20;;
15667;SDS011;7934;48.710;9.024;2023-04-03T11:45:54;3.15;;;2.03;;
15667;SDS011;7934;48.710;9.024;2023-04-03T11:53:51;2.53;;;2.13;;
15667;SDS011;7934;48.710;9.024;2023-04-03T11:56:28;2.60;;;1.85;;
15667;SDS011;7934;48.710;9.024;2023-04-03T12:01:48;2.38;;;1.90;;
15667;SDS011;7934;48.710;9.024;2023-04-03T12:04:16;2.50;;;1.90;;
15667;SDS011;7934;48.710;9.024;2023-04-03T12:12:21;5.53;;;1.90;;
15667;SDS011;7934;48.710;9.024;2023-04-03T12:14:50;2.45;;;1.90;;
15667;SDS011;7934;48.710;9.024;2023-04-03T12:17:22;2.13;;;1.98;;
15667;SDS011;7934;48.710;9.024;2023-04-03T12:19:50;2.78;;;2.00;;
15667;SDS011;7934;48.710;9.024;2023-04-03T12:22:17;1.83;;;1.73;;
15667;SDS011;7934;48.710;9.024;2023-04-03T12:24:46;1.85;;;1.70;;
15667;SDS011;7934;48.710;9.024;2023-04-03T12:27:20;1.80;;;1.70;;
15667;SDS011;7934;48.710;9.024;2023-04-03T12:29:50;2.30;;;2.10;;
15667;SDS011;7934;48.710;9.024;2023-04-03T12:32:24;2.63;;;1.83;;
15667;SDS011;7934;48.710;9.024;2023-04-03T12:34:55;2.53;;;1.90;;
15667;SDS011;7934;48.710;9.024;2023-04-03T12:37:32;2.05;;;1.85;;
15667;SDS011;7934;48.710;9.024;2023-04-03T12:40:10;3.10;;;1.70;;
15667;SDS011;7934;48.710;9.024;2023-04-03T12:42:47;3.63;;;2.00;;
15667;SDS011;7934;48.710;9.024;2023-04-03T12:45:20;2.05;;;1.80;;
15667;SDS011;7934;48.710;9.024;2023-04-03T12:47:51;2.53;;;1.80;;
15667;SDS011;7934;48.710;9.024;2023-04-03T12:50:20;1.60;;;1.50;;
15667;SDS011;7934;48.710;9.024;2023-04-03T12:52:51;1.83;;;1.73;;
15667;SDS011;7934;48.710;9.024;2023-04-03T12:55:20;1.83;;;1.73;;
15667;SDS011;7934;48.710;9.024;2023-04-03T12:57:47;6.40;;;2.28;;
15667;SDS011;7934;48.710;9.024;2023-04-03T13:03:02;4.82;;;2.10;;
15667;SDS011;7934;48.710;9.024;2023-04-03T13:05:30;2.97;;;1.77;;
15667;SDS011;7934;48.710;9.024;2023-04-03T13:07:58;2.22;;;1.70;;
15667;SDS011;7934;48.710;9.024;2023-04-03T13:10:27;3.97;;;2.00;;
15667;SDS011;7934;48.710;9.024;2023-04-03T13:12:55;3.20;;;1.90;;
15667;SDS011;7934;48.710;9.024;2023-04-03T13:15:24;2.35;;;1.80;;
15667;SDS011;7934;48.710;9.024;2023-04-03T13:17:51;2.10;;;1.90;;
15667;SDS011;7934;48.710;9.024;2023-04-03T13:20:22;3.53;;;1.83;;
15667;SDS011;7934;48.710;9.024;2023-04-03T13:22:50;2.70;;;2.17;;
15667;SDS011;7934;48.710;9.024;2023-04-03T13:25:19;2.45;;;2.05;;
15667;SDS011;7934;48.710;9.024;2023-04-03T13:27:46;2.72;;;1.90;;
15667;SDS011;7934;48.710;9.024;2023-04-03T13:30:21;2.30;;;1.90;;
15667;SDS011;7934;48.710;9.024;2023-04-03T13:32:50;2.00;;;1.70;;
15667;SDS011;7934;48.710;9.024;2023-04-03T13:35:30;1.73;;;1.63;;
15667;SDS011;7934;48.710;9.024;2023-04-03T13:37:58;1.63;;;1.53;;
15667;SDS011;7934;48.710;9.024;2023-04-03T13:40:25;2.05;;;1.80;;
15667;SDS011;7934;48.710;9.024;2023-04-03T13:43:03;2.35;;;2.10;;
15667;SDS011;7934;48.710;9.024;2023-04-03T13:45:31;3.40;;;2.03;;
15667;SDS011;7934;48.710;9.024;2023-04-03T13:48:09;1.95;;;1.83;;
15667;SDS011;7934;48.710;9.024;2023-04-03T13:50:51;1.60;;;1.50;;
15667;SDS011;7934;48.710;9.024;2023-04-03T13:53:19;3.35;;;2.00;;
15667;SDS011;7934;48.710;9.024;2023-04-03T13:55:52;2.28;;;1.88;;
15667;SDS011;7934;48.710;9.024;2023-04-03T13:58:21;1.98;;;1.77;;
15667;SDS011;7934;48.710;9.024;2023-04-03T14:00:53;2.35;;;1.98;;
15667;SDS011;7934;48.710;9.024;2023-04-03T14:03:22;2.50;;;2.20;;
15667;SDS011;7934;48.710;9.024;2023-04-03T14:05:51;2.08;;;1.98;;
15667;SDS011;7934;48.710;9.024;2023-04-03T14:08:24;2.15;;;1.95;;
15667;SDS011;7934;48.710;9.024;2023-04-03T14:10:52;3.10;;;2.00;;
15667;SDS011;7934;48.710;9.024;2023-04-03T14:13:20;4.00;;;1.85;;
15667;SDS011;7934;48.710;9.024;2023-04-03T14:15:47;1.77;;;1.67;;
15667;SDS011;7934;48.710;9.024;2023-04-03T14:18:16;2.42;;;1.90;;
15667;SDS011;7934;48.710;9.024;2023-04-03T14:20:44;2.35;;;2.20;;
15667;SDS011;7934;48.710;9.024;2023-04-03T14:23:13;2.25;;;2.00;;
15667;SDS011;7934;48.710;9.024;2023-04-03T14:25:41;1.80;;;1.70;;
15667;SDS011;7934;48.710;9.024;2023-04-03T14:28:14;3.67;;;1.80;;
15667;SDS011;7934;48.710;9.024;2023-04-03T14:30:41;2.17;;;1.98;;
15667;SDS011;7934;48.710;9.024;2023-04-03T14:33:10;2.10;;;2.00;;
15667;SDS011;7934;48.710;9.024;2023-04-03T14:35:39;2.70;;;1.88;;
15667;SDS011;7934;48.710;9.024;2023-04-03T14:38:13;3.00;;;2.20;;
15667;SDS011;7934;48.710;9.024;2023-04-03T14:40:47;3.33;;;2.00;;
15667;SDS011;7934;48.710;9.024;2023-04-03T14:43:14;2.40;;;1.90;;
15667;SDS011;7934;48.710;9.024;2023-04-03T14:45:43;2.33;;;1.88;;
15667;SDS011;7934;48.710;9.024;2023-04-03T14:48:18;2.30;;;2.00;;
15667;SDS011;7934;48.710;9.024;2023-04-03T14:50:46;2.28;;;2.08;;
15667;SDS011;7934;48.710;9.024;2023-04-03T14:53:14;1.98;;;1.88;;
15667;SDS011;7934;48.710;9.024;2023-04-03T14:55:43;2.70;;;2.08;;
15667;SDS011;7934;48.710;9.024;2023-04-03T14:58:14;1.77;;;1.67;;
15667;SDS011;7934;48.710;9.024;2023-04-03T15:00:41;3.50;;;2.05;;
15667;SDS011;7934;48.710;9.024;2023-04-03T15:03:12;5.05;;;2.10;;
15667;SDS011;7934;48.710;9.024;2023-04-03T15:05:40;5.07;;;2.03;;
15667;SDS011;7934;48.710;9.024;2023-04-03T15:08:09;2.28;;;1.95;;
15667;SDS011;7934;48.710;9.024;2023-04-03T15:10:43;2.10;;;2.00;;
15667;SDS011;7934;48.710;9.024;2023-04-03T15:13:11;1.83;;;1.73;;
15667;SDS011;7934;48.710;9.024;2023-04-03T15:15:38;3.58;;;2.20;;
15667;SDS011;7934;48.710;9.024;2023-04-03T15:18:06;2.20;;;2.00;;
15667;SDS011;7934;48.710;9.024;2023-04-03T15:20:33;2.25;;;2.03;;
15667;SDS011;7934;48.710;9.024;2023-04-03T15:23:00;2.10;;;1.90;;
15667;SDS011;7934;48.710;9.024;2023-04-03T15:25:29;2.13;;;2.00;;
15667;SDS011;7934;48.710;9.024;2023-04-03T15:27:58;1.77;;;1.63;;
15667;SDS011;7934;48.710;9.024;2023-04-03T15:30:25;3.25;;;1.83;;